createdAt,value
2017-08-30T00:04:36.947Z,"    0"
2017-08-30T00:09:33.655Z,"    0"
2017-08-30T00:14:29.396Z,"    0"
2017-08-30T00:19:25.287Z,"    0"
2017-08-30T00:24:21.521Z,"    0"
2017-08-30T00:29:18.772Z,"    0"
2017-08-30T00:34:14.909Z,"    0"
2017-08-30T00:39:10.972Z,"    0"
2017-08-30T00:44:06.700Z,"    0"
2017-08-30T00:49:05.046Z,"    0"
2017-08-30T00:54:01.588Z,"    0"
2017-08-30T00:58:58.214Z,"    0"
2017-08-30T01:03:53.973Z,"    0"
2017-08-30T01:08:50.765Z,"    0"
2017-08-30T01:13:47.360Z,"    0"
2017-08-30T01:18:43.079Z,"    0"
2017-08-30T01:23:39.189Z,"    0"
2017-08-30T01:28:35.190Z,"    0"
2017-08-30T01:33:31.031Z,"    0"
2017-08-30T01:38:27.018Z,"    0"
2017-08-30T01:43:24.277Z,"    0"
2017-08-30T01:48:19.825Z,"    0"
2017-08-30T01:53:15.748Z,"    0"
2017-08-30T01:58:12.104Z,"    0"
2017-08-30T02:03:08.091Z,"    0"
2017-08-30T02:08:03.968Z,"    0"
2017-08-30T02:12:59.821Z,"    0"
2017-08-30T02:17:56.938Z,"    0"
2017-08-30T02:22:52.817Z,"    0"
2017-08-30T02:27:48.890Z,"    0"
2017-08-30T02:32:46.315Z,"    0"
2017-08-30T02:37:41.844Z,"    0"
2017-08-30T02:42:38.978Z,"    0"
2017-08-30T02:47:34.568Z,"    0"
2017-08-30T02:52:31.393Z,"    0"
2017-08-30T02:57:27.091Z,"    0"
2017-08-30T03:02:22.926Z,"    0"
2017-08-30T03:07:19.957Z,"    0"
2017-08-30T03:12:16.759Z,"    0"
2017-08-30T03:17:12.128Z,"    0"
2017-08-30T03:22:08.378Z,"    0"
2017-08-30T03:27:04.279Z,"    0"
2017-08-30T03:32:00.144Z,"    0"
2017-08-30T03:36:56.125Z,"    0"
2017-08-30T03:41:52.068Z,"    0"
2017-08-30T03:46:47.891Z,"    0"
2017-08-30T03:51:43.710Z,"    0"
2017-08-30T03:56:39.495Z,"    0"
2017-08-30T04:01:35.259Z,"    4"
2017-08-30T04:06:30.975Z,"    4"
2017-08-30T04:11:26.719Z,"    8"
2017-08-30T04:16:23.633Z,"   20"
2017-08-30T04:21:19.362Z,"   36"
2017-08-30T04:26:15.203Z,"   68"
2017-08-30T04:31:11.271Z,"  116"
2017-08-30T04:36:08.154Z,"  164"
2017-08-30T04:41:03.540Z,"  188"
2017-08-30T04:46:00.677Z,"  296"
2017-08-30T04:50:57.628Z,"  456"
2017-08-30T04:55:53.991Z,"  676"
2017-08-30T05:00:49.531Z,"  856"
2017-08-30T05:05:45.088Z,"  944"
2017-08-30T05:10:41.321Z," 1028"
2017-08-30T05:15:37.697Z," 1100"
2017-08-30T05:20:33.620Z," 1192"
2017-08-30T05:25:29.654Z," 1464"
2017-08-30T05:30:25.507Z," 1876"
2017-08-30T05:35:21.379Z," 2192"
2017-08-30T05:40:17.657Z," 2684"
2017-08-30T05:45:13.520Z," 2940"
2017-08-30T05:50:09.549Z," 3264"
2017-08-30T05:55:07.663Z," 3464"
2017-08-30T06:00:04.211Z," 3988"
2017-08-30T06:05:00.055Z," 4764"
2017-08-30T06:09:56.135Z," 4808"
2017-08-30T06:14:52.125Z," 4368"
2017-08-30T06:19:48.241Z," 4640"
2017-08-30T06:24:44.220Z," 3820"
2017-08-30T06:29:40.051Z," 3388"
2017-08-30T06:34:36.021Z," 3396"
2017-08-30T06:39:31.814Z," 3840"
2017-08-30T06:44:27.537Z," 4664"
2017-08-30T06:49:23.958Z," 5272"
2017-08-30T06:54:19.986Z," 5156"
2017-08-30T06:59:15.969Z," 6120"
2017-08-30T07:04:12.000Z," 7028"
2017-08-30T07:09:08.213Z," 7388"
2017-08-30T07:14:04.926Z," 8724"
2017-08-30T07:19:01.116Z,12460
2017-08-30T07:23:57.491Z,11404
2017-08-30T07:28:54.417Z," 9184"
2017-08-30T07:33:50.853Z,10508
2017-08-30T07:38:47.733Z,10300
2017-08-30T07:43:44.832Z,10004
2017-08-30T07:48:40.626Z,11020
2017-08-30T07:53:36.564Z,10216
2017-08-30T07:58:33.553Z,10504
2017-08-30T08:03:29.692Z,10868
2017-08-30T08:08:25.689Z," 6696"
2017-08-30T08:13:21.586Z," 3280"
2017-08-30T08:18:19.263Z," 3204"
2017-08-30T08:23:14.490Z," 6388"
2017-08-30T08:28:10.506Z," 8380"
2017-08-30T08:33:06.781Z,12772
2017-08-30T08:38:03.386Z,15980
2017-08-30T08:43:01.060Z,17856
2017-08-30T08:47:57.701Z,14136
2017-08-30T08:52:54.991Z,16288
2017-08-30T08:57:51.103Z,11600
2017-08-30T09:02:47.977Z," 8512"
2017-08-30T09:07:44.570Z," 9940"
2017-08-30T09:12:41.325Z,11264
2017-08-30T09:17:38.252Z,11688
2017-08-30T09:22:34.182Z,10496
2017-08-30T09:27:30.380Z," 9352"
2017-08-30T09:32:26.208Z,12460
2017-08-30T09:37:22.523Z,11116
2017-08-30T09:42:18.209Z," 9348"
2017-08-30T09:47:14.019Z," 7504"
2017-08-30T09:52:10.862Z," 6144"
2017-08-30T09:57:07.212Z," 5248"
2017-08-30T10:02:03.524Z," 4052"
2017-08-30T10:06:59.193Z," 3324"
2017-08-30T10:11:55.347Z," 3244"
2017-08-30T10:16:50.871Z," 4492"
2017-08-30T10:21:46.563Z," 5404"
2017-08-30T10:26:42.404Z," 4212"
2017-08-30T10:31:39.224Z," 2812"
2017-08-30T10:36:34.509Z," 2948"
2017-08-30T10:41:30.579Z," 3656"
2017-08-30T10:46:26.245Z," 4492"
2017-08-30T10:51:22.220Z," 7168"
2017-08-30T10:56:18.413Z," 5780"
2017-08-30T11:01:15.283Z," 5928"
2017-08-30T11:06:11.973Z," 5224"
2017-08-30T11:11:08.898Z," 6868"
2017-08-30T11:16:04.749Z," 5740"
2017-08-30T11:21:03.048Z," 7020"
2017-08-30T11:25:58.858Z,14772
2017-08-30T11:30:56.562Z,15880
2017-08-30T11:35:54.137Z,17696
2017-08-30T11:40:50.573Z,13860
2017-08-30T11:45:46.592Z,14744
2017-08-30T11:50:43.943Z,14568
2017-08-30T11:55:40.076Z,14560
2017-08-30T12:00:36.471Z,14608
2017-08-30T12:05:34.053Z,22624
2017-08-30T12:10:30.393Z,19424
2017-08-30T12:15:26.581Z,15912
2017-08-30T12:20:22.916Z,15212
2017-08-30T12:25:20.136Z,16352
2017-08-30T12:30:16.649Z," 8648"
2017-08-30T12:35:12.985Z," 6576"
2017-08-30T12:40:08.264Z," 6036"
2017-08-30T12:45:03.864Z," 5768"
2017-08-30T12:49:59.708Z," 6740"
2017-08-30T12:54:55.509Z,13268
2017-08-30T12:59:51.967Z,14136
2017-08-30T13:04:48.338Z,14244
2017-08-30T13:09:45.273Z,12128
2017-08-30T13:14:41.493Z,10396
2017-08-30T13:19:38.686Z,13120
2017-08-30T13:24:34.592Z,11364
2017-08-30T13:29:32.788Z,11180
2017-08-30T13:34:28.549Z,12008
2017-08-30T13:39:24.669Z,11092
2017-08-30T13:44:20.672Z,10656
2017-08-30T13:49:17.076Z,10988
2017-08-30T13:54:14.037Z,12512
2017-08-30T13:59:10.108Z,13012
2017-08-30T14:04:06.349Z,11088
2017-08-30T14:09:03.380Z," 8720"
2017-08-30T14:13:58.919Z," 8996"
2017-08-30T14:18:54.692Z," 9388"
2017-08-30T14:23:51.683Z," 9196"
2017-08-30T14:28:48.404Z," 8532"
2017-08-30T14:33:44.068Z," 7016"
2017-08-30T14:38:39.962Z," 4132"
2017-08-30T14:43:38.038Z," 4020"
2017-08-30T14:48:34.436Z," 3560"
2017-08-30T14:53:29.794Z," 3480"
2017-08-30T14:58:25.648Z," 4432"
2017-08-30T15:03:22.740Z," 3280"
2017-08-30T15:08:18.207Z," 2960"
2017-08-30T15:13:14.014Z," 3504"
2017-08-30T15:18:09.952Z," 5160"
2017-08-30T15:23:06.021Z," 5808"
2017-08-30T15:28:03.065Z," 5620"
2017-08-30T15:32:58.823Z," 5016"
2017-08-30T15:37:54.911Z," 4000"
2017-08-30T15:42:51.115Z," 3488"
2017-08-30T15:47:46.999Z," 2828"
2017-08-30T15:52:42.858Z," 2416"
2017-08-30T15:57:38.778Z," 2180"
2017-08-30T16:02:35.663Z," 2164"
2017-08-30T16:07:32.294Z," 2404"
2017-08-30T16:12:27.979Z," 2060"
2017-08-30T16:17:23.764Z," 2244"
2017-08-30T16:22:19.687Z," 1944"
2017-08-30T16:27:16.568Z," 2060"
2017-08-30T16:32:14.315Z," 2564"
2017-08-30T16:37:09.686Z," 2716"
2017-08-30T16:42:05.916Z," 2616"
2017-08-30T16:47:01.942Z," 2208"
2017-08-30T16:51:58.053Z," 1924"
2017-08-30T16:56:54.882Z," 1900"
2017-08-30T17:01:50.551Z," 1400"
2017-08-30T17:06:46.540Z," 1196"
2017-08-30T17:11:43.485Z,"  960"
2017-08-30T17:16:40.183Z,"  912"
2017-08-30T17:21:36.776Z,"  576"
2017-08-30T17:26:32.384Z,"  856"
2017-08-30T17:31:28.199Z,"  972"
2017-08-30T17:36:23.974Z,"  812"
2017-08-30T17:41:20.854Z,"  364"
2017-08-30T17:46:16.501Z,"  212"
2017-08-30T17:51:13.370Z,"  160"
2017-08-30T17:56:10.091Z,"  200"
2017-08-30T18:01:07.110Z,"  304"
2017-08-30T18:06:02.713Z,"  248"
2017-08-30T18:10:58.690Z,"  104"
2017-08-30T18:15:54.618Z,"   40"
2017-08-30T18:20:50.819Z,"   24"
2017-08-30T18:25:47.653Z,"   12"
2017-08-30T18:30:43.527Z,"   16"
2017-08-30T18:35:40.462Z,"   12"
2017-08-30T18:40:37.156Z,"    4"
2017-08-30T18:45:33.760Z,"    0"
2017-08-30T18:50:29.347Z,"    0"
2017-08-30T18:55:26.327Z,"    0"
2017-08-30T19:00:22.055Z,"    0"
2017-08-30T19:05:20.474Z,"    0"
2017-08-30T19:10:16.095Z,"    0"
2017-08-30T19:15:14.009Z,"    0"
2017-08-30T19:20:09.763Z,"    0"
2017-08-30T19:25:07.303Z,"    0"
2017-08-30T19:30:05.099Z,"    0"
2017-08-30T19:35:01.694Z,"    0"
2017-08-30T19:39:59.534Z,"    0"
2017-08-30T19:44:55.062Z,"    0"
2017-08-30T19:49:52.122Z,"    0"
2017-08-30T19:54:47.469Z,"    0"
2017-08-30T19:59:43.925Z,"    0"
2017-08-30T20:04:39.702Z,"    0"
2017-08-30T20:09:35.665Z,"    0"
2017-08-30T20:14:31.939Z,"    0"
2017-08-30T20:19:27.945Z,"    0"
2017-08-30T20:24:24.843Z,"    0"
2017-08-30T20:29:20.396Z,"    0"
2017-08-30T20:34:16.379Z,"    0"
2017-08-30T20:39:12.276Z,"    0"
2017-08-30T20:44:09.060Z,"    0"
2017-08-30T20:49:05.697Z,"    0"
2017-08-30T20:54:00.978Z,"    0"
2017-08-30T20:58:57.217Z,"    0"
2017-08-30T21:03:53.402Z,"    0"
2017-08-30T21:08:51.077Z,"    0"
2017-08-30T21:13:48.024Z,"    0"
2017-08-30T21:18:43.550Z,"    0"
2017-08-30T21:23:39.151Z,"    0"
2017-08-30T21:28:36.150Z,"    0"
2017-08-30T21:33:33.361Z,"    0"
2017-08-30T21:38:30.119Z,"    0"
2017-08-30T21:43:27.341Z,"    0"
2017-08-30T21:48:22.869Z,"    0"
2017-08-30T21:53:18.711Z,"    0"
2017-08-30T21:58:14.533Z,"    0"
2017-08-30T22:03:09.990Z,"    0"
2017-08-30T22:08:05.894Z,"    0"
2017-08-30T22:13:01.959Z,"    0"
2017-08-30T22:17:58.872Z,"    0"
2017-08-30T22:22:54.347Z,"    0"
2017-08-30T22:27:51.518Z,"    0"
2017-08-30T22:32:47.031Z,"    0"
2017-08-30T22:37:44.900Z,"    0"
2017-08-30T22:42:40.369Z,"    0"
2017-08-30T22:47:36.331Z,"    0"
2017-08-30T22:52:32.701Z,"    0"
2017-08-30T22:57:29.531Z,"    0"
2017-08-30T23:02:26.439Z,"    0"
2017-08-30T23:07:22.393Z,"    0"
2017-08-30T23:12:19.362Z,"    0"
2017-08-30T23:17:15.871Z,"    0"
2017-08-30T23:22:13.024Z,"    0"
2017-08-30T23:27:08.633Z,"    0"
2017-08-30T23:32:05.603Z,"    0"
2017-08-30T23:37:02.299Z,"    0"
2017-08-30T23:41:57.654Z,"    0"
2017-08-30T23:46:53.465Z,"    0"
2017-08-30T23:51:49.308Z,"    0"
2017-08-30T23:56:45.218Z,"    0"
